Time;durP1;ratioP1;P1;durP2;ratioP2;P2;SDS_P1;SDS_P2;PMS_P1;PMS_P2;Temp;Humidity;BMP_temperature;BMP_pressure;BME280_temperature;BME280_humidity;BME280_pressure;Samples;Min_cycle;Max_cycle;Signal;HPM_P1;HPM_P2
2022/05/18 00:01:34;;;;;;;2.03;1.20;;;21.10;99.90;;;;;;4159323;28;20033;-68
2022/05/18 00:03:38;;;;;;;2.95;1.67;;;21.10;99.90;;;;;;4152780;28;20048;-68
2022/05/18 00:05:40;;;;;;;2.53;1.50;;;21.10;99.90;;;;;;4152364;28;20033;-68
2022/05/18 00:07:41;;;;;;;5.60;1.65;;;21.10;99.90;;;;;;4152023;28;20501;-68
2022/05/18 00:09:41;;;;;;;2.92;1.48;;;21.10;99.90;;;;;;4152947;28;20040;-68
2022/05/18 00:11:42;;;;;;;1.98;1.27;;;21.10;99.90;;;;;;4156362;28;20033;-68
2022/05/18 00:13:45;;;;;;;1.88;1.40;;;21.10;99.90;;;;;;4152231;28;20367;-68
2022/05/18 00:15:47;;;;;;;3.08;1.20;;;21.10;99.90;;;;;;4150524;28;20512;-68
2022/05/18 00:17:48;;;;;;;2.10;1.50;;;21.10;99.90;;;;;;4153819;28;20045;-68
2022/05/18 00:19:49;;;;;;;1.73;1.27;;;21.10;99.90;;;;;;4152791;28;20026;-68
2022/05/18 00:21:49;;;;;;;1.67;1.02;;;21.10;99.90;;;;;;4155696;28;20430;-68
2022/05/18 00:23:50;;;;;;;2.70;1.45;;;21.10;99.90;;;;;;4160632;28;20038;-68
2022/05/18 00:25:50;;;;;;;4.50;1.50;;;21.00;99.90;;;;;;4153268;28;20033;-68
2022/05/18 00:27:51;;;;;;;3.30;1.48;;;21.00;99.90;;;;;;4154197;28;20026;-68
2022/05/18 00:29:52;;;;;;;4.72;1.63;;;20.90;99.90;;;;;;4151430;28;20022;-68
2022/05/18 00:31:52;;;;;;;2.95;1.60;;;21.00;99.90;;;;;;4153955;28;20037;-69
2022/05/18 00:33:53;;;;;;;1.70;1.20;;;21.00;99.90;;;;;;4157794;28;20034;-69
2022/05/18 00:35:54;;;;;;;3.90;1.30;;;21.00;99.90;;;;;;4154258;28;20084;-68
2022/05/18 00:37:54;;;;;;;1.48;1.20;;;21.00;99.90;;;;;;4157282;28;20130;-68
2022/05/18 00:39:55;;;;;;;2.05;1.30;;;21.00;99.90;;;;;;4156709;28;20106;-68
2022/05/18 00:41:55;;;;;;;1.73;1.27;;;20.90;99.90;;;;;;4155567;28;20053;-68
2022/05/18 00:43:56;;;;;;;3.42;1.33;;;20.90;99.90;;;;;;4155900;28;20037;-68
2022/05/18 00:45:58;;;;;;;2.95;1.17;;;20.90;99.90;;;;;;4155643;28;20057;-68
2022/05/18 00:47:59;;;;;;;3.00;1.55;;;21.00;99.90;;;;;;4154305;28;20065;-68
2022/05/18 00:50:06;;;;;;;1.80;1.10;;;20.90;99.90;;;;;;4155616;28;20037;-68
2022/05/18 00:52:07;;;;;;;1.75;1.20;;;20.90;99.90;;;;;;4155768;28;20091;-68
2022/05/18 00:54:19;;;;;;;2.00;1.40;;;20.90;99.90;;;;;;4157878;28;20131;-68
2022/05/18 00:56:40;;;;;;;1.58;1.10;;;20.90;99.90;;;;;;4159099;28;20032;-68
2022/05/18 00:58:47;;;;;;;1.83;1.23;;;20.90;99.90;;;;;;4146447;28;20037;-68
2022/05/18 01:00:51;;;;;;;3.08;1.50;;;20.90;99.90;;;;;;4158603;28;20461;-68
2022/05/18 01:02:57;;;;;;;2.50;1.38;;;20.80;99.90;;;;;;4155251;28;20029;-68
2022/05/18 01:05:00;;;;;;;1.27;1.10;;;20.80;99.90;;;;;;4154451;28;20037;-68
2022/05/18 01:07:01;;;;;;;2.45;1.08;;;20.90;99.90;;;;;;4149909;28;20041;-68
2022/05/18 01:09:16;;;;;;;2.42;1.27;;;20.90;99.90;;;;;;4153714;28;20052;-68
2022/05/18 01:11:19;;;;;;;4.00;1.35;;;20.90;99.90;;;;;;4150425;28;20036;-68
2022/05/18 01:13:19;;;;;;;2.17;1.23;;;20.80;99.90;;;;;;4155926;28;20104;-68
2022/05/18 01:15:21;;;;;;;1.80;1.15;;;20.90;99.90;;;;;;4152194;28;20033;-68
2022/05/18 01:17:25;;;;;;;1.80;1.33;;;20.80;99.90;;;;;;4156318;28;20087;-70
2022/05/18 01:19:48;;;;;;;2.78;1.40;;;20.80;99.90;;;;;;4150158;28;20038;-68
2022/05/18 01:21:59;;;;;;;2.45;1.30;;;20.80;99.90;;;;;;4148425;28;20029;-68
2022/05/18 01:24:33;;;;;;;2.15;1.20;;;20.80;99.90;;;;;;4155472;28;20065;-68
2022/05/18 01:26:44;;;;;;;3.90;1.55;;;20.80;99.90;;;;;;4153900;28;20030;-68
2022/05/18 01:28:56;;;;;;;2.70;1.50;;;20.80;99.90;;;;;;4149701;28;20030;-68
2022/05/18 01:30:57;;;;;;;2.67;1.40;;;20.80;99.90;;;;;;4153369;28;20037;-68
2022/05/18 01:32:59;;;;;;;3.08;1.70;;;20.70;99.90;;;;;;4154840;28;20057;-68
2022/05/18 01:35:00;;;;;;;2.95;1.30;;;20.70;99.90;;;;;;4159663;28;20489;-68
2022/05/18 01:37:02;;;;;;;3.33;1.60;;;20.70;99.90;;;;;;4147953;28;20028;-68
2022/05/18 01:39:05;;;;;;;4.35;1.90;;;20.70;99.90;;;;;;4150457;28;20045;-68
2022/05/18 01:41:14;;;;;;;1.33;1.10;;;20.60;99.90;;;;;;4158226;28;20422;-68
2022/05/18 01:43:27;;;;;;;2.00;1.50;;;20.60;99.90;;;;;;4154223;28;20060;-68
2022/05/18 01:45:28;;;;;;;3.47;1.58;;;20.60;99.90;;;;;;4155069;28;20053;-68
2022/05/18 01:47:37;;;;;;;6.22;1.63;;;20.60;99.90;;;;;;4159287;28;20480;-68
2022/05/18 01:49:40;;;;;;;2.00;1.30;;;20.50;99.90;;;;;;4154831;28;20117;-68
2022/05/18 01:51:51;;;;;;;2.83;1.60;;;20.50;99.90;;;;;;4155765;28;20396;-68
2022/05/18 01:53:52;;;;;;;3.17;1.58;;;20.50;99.90;;;;;;4158012;28;20456;-68
2022/05/18 01:55:53;;;;;;;2.45;1.70;;;20.50;99.90;;;;;;4154261;28;20041;-70
2022/05/18 01:57:53;;;;;;;3.13;1.60;;;20.50;99.90;;;;;;4154742;28;20109;-68
2022/05/18 01:59:54;;;;;;;2.47;1.63;;;20.50;99.90;;;;;;4158084;28;20030;-68
2022/05/18 02:01:54;;;;;;;3.28;1.50;;;20.40;99.90;;;;;;4157399;28;20034;-68
2022/05/18 02:03:56;;;;;;;2.03;1.42;;;20.50;99.90;;;;;;4157267;28;20038;-68
2022/05/18 02:05:56;;;;;;;4.20;1.98;;;20.50;99.90;;;;;;4156043;28;20060;-68
2022/05/18 02:07:57;;;;;;;3.75;1.95;;;20.30;99.90;;;;;;4161089;28;20033;-68
2022/05/18 02:09:58;;;;;;;2.75;1.67;;;20.30;99.90;;;;;;4158007;28;20026;-68
2022/05/18 02:11:58;;;;;;;4.50;2.00;;;20.30;99.90;;;;;;4157256;28;20080;-68
2022/05/18 02:13:59;;;;;;;2.53;1.70;;;20.30;99.90;;;;;;4153546;28;20033;-68
2022/05/18 02:16:02;;;;;;;2.15;1.67;;;20.30;99.90;;;;;;4155933;28;20461;-68
2022/05/18 02:18:03;;;;;;;7.60;2.00;;;20.30;99.90;;;;;;4157418;28;20439;-68
2022/05/18 02:20:05;;;;;;;4.35;1.65;;;20.30;99.90;;;;;;4158721;28;20083;-68
2022/05/18 02:22:06;;;;;;;2.47;1.80;;;20.30;99.90;;;;;;4159536;28;20030;-68
2022/05/18 02:24:06;;;;;;;3.53;1.70;;;20.20;99.90;;;;;;4157504;28;20608;-68
2022/05/18 02:26:10;;;;;;;3.15;1.58;;;20.20;99.90;;;;;;4150488;28;20079;-68
2022/05/18 02:28:10;;;;;;;4.32;1.83;;;20.20;99.90;;;;;;4159967;28;20042;-68
2022/05/18 02:30:12;;;;;;;2.63;1.27;;;20.20;99.90;;;;;;4157751;28;20388;-68
2022/05/18 02:32:13;;;;;;;4.35;1.70;;;20.20;99.90;;;;;;4153273;28;20045;-68
2022/05/18 02:34:13;;;;;;;6.22;1.85;;;20.20;99.90;;;;;;4156839;28;20537;-68
2022/05/18 02:36:14;;;;;;;3.30;1.60;;;20.20;99.90;;;;;;4156408;28;20095;-68
2022/05/18 02:38:15;;;;;;;3.45;1.50;;;20.20;99.90;;;;;;4156881;28;20476;-68
2022/05/18 02:40:15;;;;;;;4.07;2.00;;;20.20;99.90;;;;;;4155158;28;20527;-68
2022/05/18 02:42:16;;;;;;;4.05;1.80;;;20.20;99.90;;;;;;4158155;28;20045;-68
2022/05/18 02:44:18;;;;;;;3.33;2.13;;;20.10;99.90;;;;;;4162103;28;20073;-68
2022/05/18 02:46:21;;;;;;;3.78;1.70;;;20.10;99.90;;;;;;4153906;28;20038;-68
2022/05/18 02:48:21;;;;;;;2.95;1.73;;;20.10;99.90;;;;;;4157597;28;20029;-68
2022/05/18 02:50:22;;;;;;;5.18;2.33;;;20.10;99.90;;;;;;4155152;28;20132;-68
2022/05/18 02:52:22;;;;;;;2.35;1.45;;;20.00;99.90;;;;;;4157287;28;20041;-70
2022/05/18 02:56:42;;;;;;;3.10;1.73;;;20.00;99.90;;;;;;4151911;28;20038;-70
2022/05/18 02:58:48;;;;;;;3.45;1.98;;;20.00;99.90;;;;;;4152766;28;20125;-68
2022/05/18 03:00:48;;;;;;;4.95;1.95;;;19.90;99.90;;;;;;4151742;28;20034;-68
2022/05/18 03:02:49;;;;;;;6.18;1.80;;;19.90;99.90;;;;;;4152179;28;20501;-68
2022/05/18 03:04:50;;;;;;;2.80;1.83;;;19.90;99.90;;;;;;4154371;28;20049;-68
2022/05/18 03:06:50;;;;;;;2.47;1.70;;;19.90;99.90;;;;;;4156251;28;20061;-68
2022/05/18 03:08:51;;;;;;;3.00;1.80;;;19.80;99.90;;;;;;4156394;28;20029;-68
2022/05/18 03:10:51;;;;;;;2.72;1.90;;;19.80;99.90;;;;;;4156318;28;20120;-68
2022/05/18 03:12:52;;;;;;;5.22;1.98;;;19.80;99.90;;;;;;4153690;28;20037;-68
2022/05/18 03:14:53;;;;;;;3.10;2.25;;;19.80;99.90;;;;;;4153385;28;20034;-68
2022/05/18 03:16:53;;;;;;;4.53;2.08;;;19.70;99.90;;;;;;4161359;28;20029;-69
2022/05/18 03:18:54;;;;;;;4.22;2.05;;;19.70;99.90;;;;;;4153341;28;20034;-68
2022/05/18 03:25:34;;;;;;;3.53;2.03;;;19.70;99.90;;;;;;4159477;28;20045;-68
2022/05/18 03:27:34;;;;;;;11.00;2.25;;;19.70;99.90;;;;;;4154767;28;20117;-68
2022/05/18 03:29:35;;;;;;;4.07;1.73;;;19.70;99.90;;;;;;4160407;28;20033;-68
2022/05/18 03:31:35;;;;;;;3.97;1.88;;;19.70;99.90;;;;;;4158475;28;20061;-68
2022/05/18 03:33:37;;;;;;;6.88;1.80;;;19.70;99.90;;;;;;4160093;28;20068;-68
2022/05/18 03:35:37;;;;;;;2.70;2.00;;;19.70;99.90;;;;;;4161001;28;20038;-68
2022/05/18 03:37:38;;;;;;;4.13;1.88;;;19.70;99.90;;;;;;4159148;28;20030;-68
2022/05/18 03:39:39;;;;;;;3.30;2.13;;;19.70;99.90;;;;;;4157648;28;20117;-68
2022/05/18 03:41:40;;;;;;;6.28;2.25;;;19.70;99.90;;;;;;4159230;28;20042;-68
2022/05/18 03:43:40;;;;;;;3.30;1.95;;;19.60;99.90;;;;;;4157747;28;20048;-68
2022/05/18 03:45:41;;;;;;;2.95;1.70;;;19.60;99.90;;;;;;4158896;28;20481;-68
2022/05/18 03:47:42;;;;;;;4.38;2.13;;;19.60;99.90;;;;;;4158971;28;20481;-68
2022/05/18 03:49:42;;;;;;;5.75;2.20;;;19.60;99.90;;;;;;4158205;28;20164;-68
2022/05/18 03:51:43;;;;;;;4.95;2.47;;;19.50;99.90;;;;;;4159390;28;20033;-68
2022/05/18 03:53:45;;;;;;;4.13;2.45;;;19.50;99.90;;;;;;4159164;28;20076;-69
2022/05/18 03:55:45;;;;;;;2.72;2.03;;;19.50;99.90;;;;;;4159696;28;20056;-68
2022/05/18 03:57:46;;;;;;;4.35;2.10;;;19.50;99.90;;;;;;4158414;28;20038;-68
2022/05/18 03:59:47;;;;;;;2.78;2.03;;;19.50;99.90;;;;;;4159584;28;20117;-68
2022/05/18 04:01:47;;;;;;;3.67;2.40;;;19.50;99.90;;;;;;4155222;28;20042;-68
2022/05/18 04:03:48;;;;;;;2.25;1.70;;;19.50;99.90;;;;;;4157917;28;20444;-68
2022/05/18 04:05:50;;;;;;;4.68;2.30;;;19.50;99.90;;;;;;4158297;28;20402;-68
2022/05/18 04:07:50;;;;;;;6.90;2.47;;;19.50;99.90;;;;;;4156840;28;20112;-68
2022/05/18 04:09:51;;;;;;;3.83;1.92;;;19.50;99.90;;;;;;4155425;28;20061;-68
2022/05/18 04:11:52;;;;;;;2.67;1.90;;;19.50;99.90;;;;;;4157702;28;20037;-68
2022/05/18 04:13:54;;;;;;;2.10;1.55;;;19.60;99.90;;;;;;4158319;28;20060;-68
2022/05/18 04:15:56;;;;;;;3.00;1.83;;;19.50;99.90;;;;;;4157347;28;20033;-68
2022/05/18 04:17:58;;;;;;;9.02;2.33;;;19.60;99.90;;;;;;4156000;28;20124;-68
2022/05/18 04:19:59;;;;;;;4.78;2.15;;;19.60;99.90;;;;;;4158129;28;20457;-68
2022/05/18 04:21:59;;;;;;;3.72;1.90;;;19.60;99.90;;;;;;4157275;28;20116;-68
2022/05/18 04:24:00;;;;;;;4.30;2.13;;;19.60;99.90;;;;;;4158546;28;20033;-68
2022/05/18 04:26:00;;;;;;;5.20;2.17;;;19.60;99.90;;;;;;4157660;28;20523;-68
2022/05/18 04:28:01;;;;;;;2.58;1.85;;;19.60;99.90;;;;;;4160840;28;20756;-68
2022/05/18 04:30:03;;;;;;;2.35;1.70;;;19.60;99.90;;;;;;4155856;28;20454;-68
2022/05/18 04:32:05;;;;;;;4.25;1.90;;;19.60;99.90;;;;;;4156571;28;20083;-68
2022/05/18 04:34:06;;;;;;;2.88;1.92;;;19.70;99.90;;;;;;4158587;28;20488;-68
2022/05/18 04:36:07;;;;;;;4.03;2.35;;;19.70;99.90;;;;;;4152881;28;20075;-68
2022/05/18 04:38:07;;;;;;;4.65;2.08;;;19.70;99.90;;;;;;4153875;28;20024;-68
2022/05/18 04:40:08;;;;;;;3.05;1.55;;;19.70;99.90;;;;;;4156616;28;20032;-68
2022/05/18 04:42:09;;;;;;;3.13;2.15;;;19.70;99.90;;;;;;4157183;28;20033;-68
2022/05/18 04:44:10;;;;;;;4.22;2.15;;;19.70;99.90;;;;;;4155703;28;20095;-68
2022/05/18 04:46:11;;;;;;;4.80;2.00;;;19.80;99.90;;;;;;4154946;28;20033;-68
2022/05/18 04:48:17;;;;;;;2.83;1.88;;;19.80;99.90;;;;;;4150773;28;20113;-68
2022/05/18 04:50:19;;;;;;;3.72;2.10;;;19.80;99.90;;;;;;4150645;28;20085;-68
2022/05/18 04:52:21;;;;;;;4.95;1.88;;;19.80;99.90;;;;;;4153972;28;20378;-68
2022/05/18 04:54:21;;;;;;;2.70;2.22;;;19.80;99.90;;;;;;4156340;28;20370;-68
2022/05/18 04:56:22;;;;;;;4.70;2.13;;;19.80;99.90;;;;;;4151162;28;20068;-68
2022/05/18 04:58:23;;;;;;;4.20;2.30;;;19.90;99.90;;;;;;4151560;28;20125;-68
2022/05/18 05:00:24;;;;;;;2.83;2.05;;;19.90;99.90;;;;;;4158586;28;20033;-68
2022/05/18 05:02:24;;;;;;;5.03;1.80;;;19.90;99.90;;;;;;4155944;28;20029;-68
2022/05/18 05:04:25;;;;;;;2.85;1.95;;;19.90;99.90;;;;;;4158640;28;20056;-68
2022/05/18 05:06:26;;;;;;;4.32;2.05;;;20.00;99.90;;;;;;4157424;28;20491;-68
2022/05/18 05:08:27;;;;;;;3.42;1.85;;;20.00;99.90;;;;;;4155934;28;20084;-68
2022/05/18 05:10:27;;;;;;;4.97;2.53;;;20.00;99.90;;;;;;4153116;28;20033;-68
2022/05/18 05:12:28;;;;;;;3.92;2.38;;;20.00;99.90;;;;;;4158566;28;20033;-68
2022/05/18 05:14:29;;;;;;;4.65;2.40;;;20.10;99.90;;;;;;4156808;28;20041;-69
2022/05/18 05:16:29;;;;;;;3.90;2.03;;;20.10;99.90;;;;;;4159169;28;20112;-69
2022/05/18 05:18:31;;;;;;;5.07;2.78;;;20.20;99.90;;;;;;4156186;28;20033;-69
2022/05/18 05:20:31;;;;;;;6.47;3.08;;;20.20;99.90;;;;;;4149714;28;20084;-69
2022/05/18 05:22:32;;;;;;;3.47;2.28;;;20.20;99.90;;;;;;4148816;28;20029;-69
2022/05/18 05:24:33;;;;;;;3.15;2.15;;;20.20;99.90;;;;;;4156832;28;20407;-69
2022/05/18 05:26:33;;;;;;;6.60;2.47;;;20.30;99.90;;;;;;4159192;28;20411;-69
2022/05/18 05:28:34;;;;;;;3.72;2.42;;;20.30;99.90;;;;;;4156823;28;20120;-68
2022/05/18 05:30:36;;;;;;;5.10;2.50;;;20.30;99.90;;;;;;4154534;28;20050;-68
2022/05/18 05:32:37;;;;;;;11.50;2.67;;;20.30;99.90;;;;;;4151515;28;20034;-68
2022/05/18 05:34:37;;;;;;;3.63;2.17;;;20.30;99.90;;;;;;4153442;28;20485;-68
2022/05/18 05:36:38;;;;;;;4.82;2.45;;;20.30;99.90;;;;;;4154085;28;20044;-69
2022/05/18 05:38:39;;;;;;;3.75;2.42;;;20.30;99.90;;;;;;4154434;28;20033;-68
2022/05/18 05:40:39;;;;;;;3.55;2.10;;;20.30;99.90;;;;;;4157166;28;20030;-68
2022/05/18 05:42:40;;;;;;;4.68;2.30;;;20.30;99.90;;;;;;4151848;28;20046;-69
2022/05/18 05:44:41;;;;;;;3.22;2.13;;;20.40;99.90;;;;;;4149738;28;20076;-69
2022/05/18 05:46:41;;;;;;;4.60;2.47;;;20.40;99.90;;;;;;4155741;28;20524;-68
2022/05/18 05:48:44;;;;;;;7.05;2.42;;;20.40;99.90;;;;;;4157457;28;20029;-69
2022/05/18 05:50:44;;;;;;;4.28;2.33;;;20.50;99.90;;;;;;4154892;28;20072;-68
2022/05/18 05:52:45;;;;;;;4.47;2.38;;;20.50;99.90;;;;;;4155947;28;20041;-69
2022/05/18 05:54:46;;;;;;;4.13;2.17;;;20.50;99.90;;;;;;4153038;28;20034;-69
2022/05/18 05:56:46;;;;;;;3.78;2.20;;;20.50;99.90;;;;;;4154259;28;20034;-69
2022/05/18 05:58:48;;;;;;;4.25;2.13;;;20.60;99.90;;;;;;4158670;28;20140;-69
2022/05/18 06:00:49;;;;;;;3.67;2.23;;;20.70;99.90;;;;;;4155688;28;20046;-69
2022/05/18 06:02:50;;;;;;;4.88;2.45;;;20.80;99.90;;;;;;4153336;28;20033;-69
2022/05/18 06:04:51;;;;;;;4.88;2.95;;;20.90;99.90;;;;;;4156247;28;20044;-69
2022/05/18 06:06:51;;;;;;;9.32;2.70;;;21.20;99.90;;;;;;4157115;28;20396;-69
2022/05/18 06:08:52;;;;;;;3.67;2.22;;;21.50;99.90;;;;;;4153338;28;20433;-69
2022/05/18 06:10:53;;;;;;;5.32;2.80;;;21.90;99.90;;;;;;4156012;28;20112;-68
2022/05/18 06:12:53;;;;;;;4.68;2.40;;;22.30;99.90;;;;;;4156623;28;20038;-69
2022/05/18 06:14:54;;;;;;;3.13;2.03;;;22.70;99.90;;;;;;4153307;28;20034;-69
2022/05/18 06:16:54;;;;;;;7.57;2.47;;;23.10;99.90;;;;;;4157696;28;20055;-69
2022/05/18 06:18:55;;;;;;;6.28;2.30;;;23.30;99.90;;;;;;4156330;28;20120;-69
2022/05/18 06:20:56;;;;;;;5.70;2.50;;;23.50;99.90;;;;;;4155677;28;20795;-69
2022/05/18 06:23:02;;;;;;;5.28;2.42;;;23.90;99.90;;;;;;4157301;28;20041;-70
2022/05/18 06:25:04;;;;;;;5.72;2.50;;;24.20;99.30;;;;;;4157051;28;20037;-69
2022/05/18 06:27:05;;;;;;;7.82;2.10;;;24.40;99.00;;;;;;4160345;28;20029;-69
2022/05/18 06:29:05;;;;;;;5.63;2.00;;;24.80;98.50;;;;;;4161315;28;20040;-69
2022/05/18 06:31:07;;;;;;;4.32;2.30;;;25.10;97.90;;;;;;4160965;28;20033;-69
2022/05/18 06:33:07;;;;;;;5.50;2.20;;;25.40;97.80;;;;;;4160818;28;20053;-69
2022/05/18 06:35:08;;;;;;;3.58;2.00;;;25.80;96.80;;;;;;4157383;28;20037;-69
2022/05/18 06:37:08;;;;;;;5.28;2.20;;;25.90;95.70;;;;;;4160573;28;20530;-69
2022/05/18 06:39:09;;;;;;;4.28;1.98;;;26.10;95.40;;;;;;4156951;28;20041;-69
2022/05/18 06:41:22;;;;;;;6.32;2.38;;;26.20;95.20;;;;;;4155793;28;20108;-70
2022/05/18 06:43:22;;;;;;;;;;;26.20;94.70;;;;;;4159780;28;20071;-70
2022/05/18 06:45:23;;;;;;;4.22;2.03;;;26.30;94.80;;;;;;4157268;28;19965;-70
2022/05/18 06:47:23;;;;;;;9.50;2.67;;;26.40;94.20;;;;;;4156458;28;20102;-70
2022/05/18 06:49:26;;;;;;;4.30;1.92;;;26.40;93.40;;;;;;4154528;28;20040;-70
2022/05/18 06:51:30;;;;;;;5.85;2.35;;;26.50;93.40;;;;;;4157602;28;20047;-70
2022/05/18 06:53:30;;;;;;;4.10;2.00;;;26.50;93.50;;;;;;4155676;28;20045;-70
2022/05/18 06:55:31;;;;;;;3.95;1.98;;;26.60;93.70;;;;;;4156176;28;20034;-70
2022/05/18 06:57:32;;;;;;;3.33;2.10;;;26.60;93.60;;;;;;4159897;28;20060;-69
2022/05/18 06:59:32;;;;;;;3.75;1.98;;;26.70;93.30;;;;;;4156205;28;20091;-69
2022/05/18 07:01:33;;;;;;;4.22;2.30;;;26.70;93.20;;;;;;4158680;28;20037;-70
2022/05/18 07:03:34;;;;;;;4.15;2.13;;;26.70;92.90;;;;;;4158812;28;20038;-69
2022/05/18 07:05:35;;;;;;;3.78;2.22;;;26.70;92.70;;;;;;4158400;28;20054;-69
2022/05/18 07:07:37;;;;;;;4.45;1.98;;;26.70;93.00;;;;;;4158991;28;20042;-69
2022/05/18 07:09:38;;;;;;;6.20;2.45;;;26.70;92.00;;;;;;4160408;28;20040;-68
2022/05/18 07:11:38;;;;;;;6.65;2.80;;;26.70;91.90;;;;;;4155196;28;20025;-69
2022/05/18 07:13:39;;;;;;;5.00;2.42;;;26.60;91.50;;;;;;4157574;28;20113;-69
2022/05/18 07:15:40;;;;;;;5.07;2.60;;;26.60;91.10;;;;;;4158407;28;20034;-69
2022/05/18 07:17:41;;;;;;;7.55;2.55;;;26.50;91.40;;;;;;4160238;28;20397;-69
2022/05/18 07:19:41;;;;;;;4.85;2.58;;;26.60;91.30;;;;;;4161696;28;20059;-69
2022/05/18 07:21:43;;;;;;;2.20;1.67;;;26.50;91.20;;;;;;4159950;28;20033;-69
2022/05/18 07:23:44;;;;;;;4.78;1.98;;;26.60;91.30;;;;;;4156560;28;20361;-69
2022/05/18 07:25:44;;;;;;;2.42;1.70;;;26.60;90.90;;;;;;4156375;28;20056;-69
2022/05/18 07:27:45;;;;;;;2.88;1.90;;;26.60;91.00;;;;;;4160319;28;20034;-69
2022/05/18 07:29:45;;;;;;;5.43;2.08;;;26.70;91.10;;;;;;4161855;28;20037;-69
2022/05/18 07:34:05;;;;;;;5.20;1.63;;;26.70;90.90;;;;;;4155943;28;20045;-69
2022/05/18 07:36:07;;;;;;;4.68;2.00;;;26.80;90.60;;;;;;4157033;28;20037;-68
2022/05/18 07:38:08;;;;;;;6.93;1.98;;;26.80;89.90;;;;;;4156050;28;20054;-68
2022/05/18 07:40:09;;;;;;;2.95;1.70;;;26.80;89.90;;;;;;4157651;28;20037;-69
2022/05/18 07:42:10;;;;;;;3.65;1.70;;;26.80;90.10;;;;;;4159259;28;20512;-69
2022/05/18 07:44:11;;;;;;;3.13;1.58;;;26.90;90.00;;;;;;4141524;28;20088;-68
2022/05/18 07:46:12;;;;;;;3.67;1.50;;;26.90;90.30;;;;;;4157120;28;20079;-68
2022/05/18 07:48:13;;;;;;;4.00;1.90;;;26.90;88.70;;;;;;4159341;28;20037;-68
2022/05/18 07:50:13;;;;;;;3.42;1.73;;;27.00;89.40;;;;;;4160215;28;20037;-69
2022/05/18 07:52:14;;;;;;;3.30;1.77;;;27.00;89.40;;;;;;4158493;28;20116;-69
2022/05/18 07:54:15;;;;;;;2.75;1.50;;;27.00;88.00;;;;;;4157925;28;20057;-69
2022/05/18 07:56:16;;;;;;;3.78;1.90;;;27.10;89.50;;;;;;4159370;28;20057;-69
2022/05/18 07:58:18;;;;;;;3.65;2.10;;;27.10;88.80;;;;;;4159248;28;20469;-69
2022/05/18 08:00:21;;;;;;;10.68;2.10;;;27.10;89.20;;;;;;4159144;28;20408;-70
2022/05/18 08:02:21;;;;;;;;;;;27.10;87.70;;;;;;4154810;28;20370;-69
2022/05/18 08:04:22;;;;;;;2.92;1.58;;;27.00;87.30;;;;;;4159642;28;19970;-70
2022/05/18 08:06:23;;;;;;;2.97;1.73;;;27.00;87.80;;;;;;4159317;28;20045;-70
2022/05/18 08:08:24;;;;;;;1.73;1.50;;;27.10;86.70;;;;;;4157483;28;20041;-69
2022/05/18 08:15:06;;;;;;;2.90;1.33;;;27.10;88.10;;;;;;4158610;28;20026;-69
2022/05/18 08:17:07;;;;;;;4.53;1.98;;;27.20;87.20;;;;;;4173569;28;20428;-69
2022/05/18 08:19:12;;;;;;;2.05;1.60;;;27.10;86.50;;;;;;4157471;28;20038;-69
2022/05/18 08:21:13;;;;;;;2.78;1.65;;;27.20;86.90;;;;;;4157756;28;20042;-69
2022/05/18 08:23:14;;;;;;;5.65;1.52;;;27.30;87.40;;;;;;4156702;28;20373;-68
2022/05/18 08:25:15;;;;;;;2.45;1.38;;;27.30;90.30;;;;;;4157392;28;20493;-69
2022/05/18 08:27:16;;;;;;;2.65;1.42;;;27.40;87.70;;;;;;4156583;28;20049;-69
2022/05/18 08:29:17;;;;;;;3.60;1.63;;;27.40;87.80;;;;;;4158208;28;20112;-70
2022/05/18 08:31:18;;;;;;;2.67;1.60;;;27.40;87.60;;;;;;4156081;28;20034;-69
2022/05/18 08:33:18;;;;;;;2.60;1.60;;;27.50;86.30;;;;;;4159976;28;20053;-70
2022/05/18 08:35:19;;;;;;;3.15;1.60;;;27.50;87.00;;;;;;4155381;28;20196;-70
2022/05/18 08:37:22;;;;;;;3.65;1.75;;;27.50;85.80;;;;;;4154576;28;20493;-69
2022/05/18 08:39:23;;;;;;;2.03;1.52;;;27.60;87.40;;;;;;4155983;28;20045;-69
2022/05/18 08:41:30;;;;;;;3.75;1.73;;;27.60;85.90;;;;;;4157915;28;20477;-70
2022/05/18 08:43:38;;;;;;;2.42;1.40;;;27.60;86.00;;;;;;4159742;28;20049;-69
2022/05/18 08:45:46;;;;;;;4.38;1.55;;;27.70;86.50;;;;;;4158044;28;20033;-69
2022/05/18 08:48:29;;;;;;;5.20;1.63;;;27.70;85.30;;;;;;4156635;28;20053;-69
2022/05/18 08:50:30;;;;;;;2.25;1.42;;;27.70;85.60;;;;;;4155838;28;20046;-68
2022/05/18 08:52:59;;;;;;;8.27;2.42;;;27.80;85.90;;;;;;4154999;28;20056;-69
2022/05/18 08:55:27;;;;;;;9.52;2.05;;;27.80;86.70;;;;;;4156297;28;20041;-68
2022/05/18 08:57:35;;;;;;;3.50;1.77;;;27.80;86.30;;;;;;4158716;28;20044;-69
2022/05/18 08:59:39;;;;;;;3.63;1.75;;;27.80;84.90;;;;;;4156099;28;20107;-69
2022/05/18 09:01:45;;;;;;;3.20;1.90;;;27.80;85.00;;;;;;4153720;28;20046;-68
2022/05/18 09:03:53;;;;;;;5.70;2.00;;;27.80;84.80;;;;;;4158751;28;20101;-69
2022/05/18 09:05:56;;;;;;;6.00;1.67;;;27.80;85.40;;;;;;4154595;28;20029;-69
2022/05/18 09:08:10;;;;;;;3.22;1.65;;;27.80;85.10;;;;;;4152855;28;20137;-70
2022/05/18 09:10:27;;;;;;;2.78;1.73;;;27.80;84.60;;;;;;4158499;28;20091;-71
2022/05/18 09:12:28;;;;;;;3.22;1.67;;;27.80;85.90;;;;;;4157443;28;20029;-69
2022/05/18 09:14:33;;;;;;;2.47;1.40;;;27.90;86.00;;;;;;4152979;28;20057;-69
2022/05/18 09:16:55;;;;;;;3.40;1.48;;;27.90;86.40;;;;;;4151264;28;20037;-69
2022/05/18 09:19:33;;;;;;;5.40;1.85;;;28.00;85.40;;;;;;4151957;28;20388;-69
2022/05/18 09:22:10;;;;;;;3.30;1.60;;;28.10;86.50;;;;;;4149731;28;20026;-69
2022/05/18 09:24:28;;;;;;;2.38;1.60;;;28.20;86.60;;;;;;4156080;28;20457;-70
2022/05/18 09:27:10;;;;;;;2.55;1.58;;;28.30;87.20;;;;;;4157105;28;20042;-70
2022/05/18 09:29:34;;;;;;;2.63;1.83;;;28.40;87.30;;;;;;4154704;28;20503;-69
2022/05/18 09:31:49;;;;;;;9.13;1.92;;;28.40;86.50;;;;;;4157829;28;20500;-70
2022/05/18 09:34:20;;;;;;;4.32;2.20;;;28.50;86.10;;;;;;4157510;28;20046;-70
2022/05/18 09:36:31;;;;;;;2.45;1.40;;;28.40;84.10;;;;;;4154790;28;20065;-69
2022/05/18 09:39:05;;;;;;;4.35;1.55;;;28.40;84.90;;;;;;4158498;28;20112;-69
2022/05/18 09:41:13;;;;;;;1.70;1.30;;;28.50;85.40;;;;;;4155856;28;20033;-69
2022/05/18 09:43:45;;;;;;;2.90;2.03;;;28.50;84.10;;;;;;4158249;28;20048;-69
2022/05/18 09:45:48;;;;;;;3.80;1.75;;;28.60;81.80;;;;;;4155439;28;20050;-68
2022/05/18 09:47:51;;;;;;;3.58;1.48;;;28.60;83.00;;;;;;4157411;28;20136;-69
2022/05/18 09:49:59;;;;;;;2.50;1.40;;;28.50;81.20;;;;;;4157711;28;20041;-69
2022/05/18 09:52:03;;;;;;;3.70;1.98;;;28.60;82.80;;;;;;4155784;28;20029;-69
2022/05/18 09:54:04;;;;;;;1.67;1.55;;;28.50;81.70;;;;;;4157111;28;20025;-68
2022/05/18 09:56:11;;;;;;;7.68;1.98;;;28.60;82.90;;;;;;4150831;28;20231;-68
2022/05/18 09:58:21;;;;;;;2.20;1.25;;;28.60;79.10;;;;;;4155653;28;20458;-69
2022/05/18 10:00:27;;;;;;;3.13;1.48;;;28.70;83.00;;;;;;4154092;28;20046;-69
2022/05/18 10:07:37;;;;;;;4.68;1.75;;;28.80;80.00;;;;;;4158296;28;20026;-69
2022/05/18 10:09:49;;;;;;;3.58;1.40;;;28.90;79.90;;;;;;4158695;28;20033;-68
2022/05/18 10:11:50;;;;;;;3.42;1.85;;;28.90;79.50;;;;;;4159200;28;20094;-69
2022/05/18 10:14:08;;;;;;;3.65;1.90;;;28.90;79.10;;;;;;4151917;28;20055;-69
2022/05/18 10:16:19;;;;;;;2.67;1.70;;;28.90;78.10;;;;;;4159219;28;20029;-69
2022/05/18 10:18:22;;;;;;;2.10;1.52;;;28.90;77.90;;;;;;4154246;28;20053;-69
2022/05/18 10:20:30;;;;;;;6.22;1.77;;;28.90;77.20;;;;;;4156751;28;20038;-69
2022/05/18 10:22:38;;;;;;;2.90;1.58;;;29.00;78.00;;;;;;4157379;28;20037;-68
2022/05/18 10:24:41;;;;;;;3.10;1.48;;;29.00;77.80;;;;;;4154617;28;20046;-69
2022/05/18 10:26:42;;;;;;;2.67;1.90;;;29.00;76.90;;;;;;4155709;28;20029;-68
2022/05/18 10:28:43;;;;;;;2.42;1.60;;;28.90;77.90;;;;;;4158983;28;20068;-68
2022/05/18 10:30:55;;;;;;;4.32;1.70;;;29.00;77.00;;;;;;4157496;28;20034;-69
2022/05/18 10:32:59;;;;;;;;;;;29.00;78.40;;;;;;4155581;28;20493;-68
2022/05/18 10:35:01;;;;;;;2.53;1.55;;;29.10;77.90;;;;;;4158905;28;20686;-69
2022/05/18 10:37:02;;;;;;;2.75;1.73;;;29.10;76.80;;;;;;4151055;28;20038;-69
2022/05/18 10:39:04;;;;;;;4.28;1.65;;;29.10;76.80;;;;;;4154611;28;20030;-69
2022/05/18 10:41:14;;;;;;;;;;;29.10;77.20;;;;;;4156682;28;20037;-69
2022/05/18 10:43:34;;;;;;;3.60;1.58;;;29.20;76.90;;;;;;4151409;28;20004;-68
2022/05/18 10:45:35;;;;;;;5.15;1.65;;;29.20;79.00;;;;;;4157262;28;20044;-68
2022/05/18 10:47:38;;;;;;;5.63;1.70;;;29.30;80.00;;;;;;4161142;28;20037;-69
2022/05/18 10:49:38;;;;;;;2.40;1.40;;;29.40;80.10;;;;;;4153076;28;20041;-69
2022/05/18 10:51:39;;;;;;;4.28;1.70;;;29.40;80.00;;;;;;4156856;28;20052;-68
2022/05/18 10:53:45;;;;;;;3.65;1.70;;;29.50;77.60;;;;;;4152297;28;20044;-69
2022/05/18 10:55:58;;;;;;;4.80;1.50;;;29.50;75.50;;;;;;4155084;28;20046;-68
2022/05/18 10:58:21;;;;;;;3.17;1.70;;;29.40;72.60;;;;;;4156377;28;20528;-69
2022/05/18 11:00:27;;;;;;;6.43;1.85;;;29.50;74.00;;;;;;4155198;28;20037;-69
2022/05/18 11:02:51;;;;;;;2.03;1.30;;;29.50;74.00;;;;;;4155337;28;20044;-69
2022/05/18 11:05:13;;;;;;;4.50;1.90;;;29.50;74.90;;;;;;4159026;28;20378;-69